Aérodrome :
LOGIN :

S'inscrire | Disclaimer

   EN    FR    IT 

 










Légende :    VFR   VFR Marginal   IFR   IFR Intensif   IFR Très Intensif
Visi : 
Plafond : 
>= 8 km
>= 3000ft
5 à 8 km
1000 à 3000 ft
1500m à 5 km
500 à 1000 ft
800 à 1500m
200 à 500 ft
< 800m
< 200 ft
Symboles :   Orages  Brouillard  Fortes neiges  Fortes précipitations  Vent > 20 kt
SIGMETs :   Divers  Orages  Givrage  Turbulence  Onde Orograph.  Cendres Volcan.







- Altitude de l'aérodrome : 266 ft
- Code IATA : NCL
- Voir les cartes d'approche


EGNT - Newcastle

DERNIER METAR :
  • 250120Z 28005KT CAVOK 05/05 Q1017

METARs EXPIRÉS :
  • 250050Z 29005KT CAVOK 06/06 Q1017
  • 250020Z VRB01KT 9999 FEW048 05/05 Q1017
  • 242350Z 30003KT CAVOK 06/06 Q1017
  • 242320Z VRB01KT CAVOK 06/06 Q1017
  • 242250Z 28005KT CAVOK 06/06 Q1017
  • 242220Z 29004KT CAVOK 07/06 Q1017

TAF TAF EGNT
Valide du 25 à 00h jusqu'au 26 à 00h UTC


242258Z 2500/2524 27006KT 9999 SCT040
TEMPO 2502/2506 6000
TEMPO 2515/2518 6000 RA
BECMG 2518/2521 8000 -RA FEW008 BKN010
TEMPO 2518/2524 4000 RADZ BKN008
ATIS : +44 191 214 3400
Pas de NOTAMs connus pour ce terrain.



MET'MAP, la Météo Aéronautique d'un coup d'oeil ! - Copyright ORBIFLY Décembre 2007 - Disclaimer

ORBIFLY MET'MAP TEAM :

Programmation & Développement : Alexandra Zaïnal
Conception & Développement : Baudouin d'Aumeries
Co-Programmation & Développement : Marc-Olivier Méhu
Soutien technique & logistique : Manuel Goepfert

Contact : metmap@orbifly.com




SOURCES & CREDITS :

   NOAA